Time;durP1;ratioP1;P1;durP2;ratioP2;P2;SDS_P1;SDS_P2;PMS_P1;PMS_P2;Temp;Humidity;BMP_temperature;BMP_pressure;BME280_temperature;BME280_humidity;BME280_pressure;Samples;Min_cycle;Max_cycle;Signal;HPM_P1;HPM_P2
2023/03/24 00:00:10;;;;;;;4.63;1.88;;;14.90;79.30;;;;;;5080727;28;20306;-65
2023/03/24 00:02:41;;;;;;;4.65;1.73;;;14.90;79.00;;;;;;5080910;28;20489;-65
2023/03/24 00:05:15;;;;;;;4.82;1.95;;;14.90;79.10;;;;;;5080495;28;20036;-65
2023/03/24 00:07:41;;;;;;;5.38;2.10;;;14.90;78.80;;;;;;5083795;28;20052;-65
2023/03/24 00:10:13;;;;;;;7.32;2.28;;;14.90;78.80;;;;;;5086214;28;20356;-65
2023/03/24 00:12:41;;;;;;;4.38;2.40;;;14.90;79.00;;;;;;5079474;28;20073;-65
2023/03/24 00:15:09;;;;;;;5.07;2.05;;;14.80;79.60;;;;;;5083018;28;20032;-65
2023/03/24 00:17:35;;;;;;;4.10;2.33;;;14.70;79.30;;;;;;5077343;28;20025;-65
2023/03/24 00:20:06;;;;;;;5.07;2.53;;;14.60;79.50;;;;;;5075825;28;20035;-65
2023/03/24 00:22:32;;;;;;;6.28;2.40;;;14.60;79.70;;;;;;5093854;28;20108;-65
2023/03/24 00:24:58;;;;;;;6.00;2.53;;;14.50;79.60;;;;;;5087558;28;20099;-65
2023/03/24 00:27:23;;;;;;;5.20;2.47;;;14.40;80.10;;;;;;5090503;28;20472;-65
2023/03/24 00:29:49;;;;;;;5.28;2.33;;;14.40;80.30;;;;;;5092312;28;20020;-66
2023/03/24 00:32:15;;;;;;;7.35;2.50;;;14.40;80.30;;;;;;5079988;28;20104;-64
2023/03/24 00:34:42;;;;;;;4.10;2.30;;;14.50;80.00;;;;;;5078763;28;20099;-65
2023/03/24 00:37:08;;;;;;;5.13;2.38;;;14.40;80.40;;;;;;5086359;28;20374;-65
2023/03/24 00:39:34;;;;;;;7.18;2.88;;;14.40;80.50;;;;;;5081470;28;20032;-65
2023/03/24 00:42:00;;;;;;;6.22;2.10;;;14.40;80.50;;;;;;5080639;28;20432;-65
2023/03/24 00:44:26;;;;;;;6.00;2.50;;;14.40;80.60;;;;;;5090715;28;20521;-65
2023/03/24 00:46:55;;;;;;;4.60;2.15;;;14.40;80.60;;;;;;5083776;28;20107;-65
2023/03/24 00:49:40;;;;;;;4.65;2.15;;;14.40;80.60;;;;;;5081596;28;20039;-65
2023/03/24 00:52:19;;;;;;;4.10;2.15;;;14.50;80.60;;;;;;5079692;28;20468;-65
2023/03/24 00:54:46;;;;;;;6.25;2.10;;;14.40;80.90;;;;;;5075371;28;20032;-65
2023/03/24 00:57:13;;;;;;;5.13;2.35;;;14.40;80.60;;;;;;5079184;28;20352;-65
2023/03/24 00:59:47;;;;;;;4.90;2.10;;;14.40;80.40;;;;;;5090842;28;20374;-65
2023/03/24 01:02:14;;;;;;;6.03;2.78;;;14.40;80.40;;;;;;5090940;28;20055;-65
2023/03/24 01:04:40;;;;;;;7.03;2.20;;;14.40;80.60;;;;;;5087637;28;20032;-65
2023/03/24 01:07:11;;;;;;;4.18;2.20;;;14.30;80.90;;;;;;5075845;28;20405;-65
2023/03/24 01:09:37;;;;;;;4.35;2.20;;;14.40;80.60;;;;;;5086964;28;20082;-65
2023/03/24 01:12:03;;;;;;;4.57;2.33;;;14.30;80.70;;;;;;5090372;28;20032;-65
2023/03/24 01:14:31;;;;;;;5.22;1.95;;;14.20;80.90;;;;;;5079874;28;20056;-65
2023/03/24 01:16:57;;;;;;;4.50;2.47;;;14.30;80.40;;;;;;5080018;28;20314;-65
2023/03/24 01:19:24;;;;;;;4.97;2.05;;;14.40;80.30;;;;;;5085667;28;20107;-64
2023/03/24 01:21:50;;;;;;;4.22;2.10;;;14.40;80.10;;;;;;5085851;28;20019;-65
2023/03/24 01:24:16;;;;;;;5.97;2.20;;;14.40;80.00;;;;;;5076094;28;20314;-65
2023/03/24 01:26:43;;;;;;;4.82;1.88;;;14.40;80.10;;;;;;5084286;28;20052;-65
2023/03/24 01:29:08;;;;;;;5.20;2.20;;;14.40;80.00;;;;;;5092232;28;20028;-65
2023/03/24 01:31:34;;;;;;;4.63;2.05;;;14.40;80.00;;;;;;5089743;28;20043;-65
2023/03/24 01:34:00;;;;;;;4.18;2.20;;;14.50;79.80;;;;;;5082934;28;20298;-65
2023/03/24 01:36:26;;;;;;;3.70;1.90;;;14.50;79.40;;;;;;5090786;28;20028;-65
2023/03/24 01:38:51;;;;;;;3.97;1.77;;;14.50;79.30;;;;;;5096650;28;20455;-65
2023/03/24 01:41:17;;;;;;;4.47;1.98;;;14.50;79.60;;;;;;5088544;28;20081;-65
2023/03/24 01:43:43;;;;;;;4.47;2.08;;;14.40;79.70;;;;;;5084899;28;20095;-64
2023/03/24 01:46:20;;;;;;;6.20;1.92;;;14.40;79.60;;;;;;5080669;28;20031;-65
2023/03/24 01:48:48;;;;;;;6.32;2.33;;;14.20;80.30;;;;;;5081989;28;20177;-65
2023/03/24 01:51:23;;;;;;;4.78;2.13;;;14.20;80.20;;;;;;5086011;28;20038;-63
2023/03/24 01:54:00;;;;;;;4.93;2.05;;;14.20;80.10;;;;;;5086760;28;20114;-63
2023/03/24 01:56:28;;;;;;;4.20;1.88;;;14.10;80.20;;;;;;5083131;28;21478;-63
2023/03/24 01:59:05;;;;;;;4.13;2.10;;;14.30;79.40;;;;;;5077382;28;20037;-63
2023/03/24 02:01:31;;;;;;;5.80;1.63;;;14.60;78.20;;;;;;5080154;28;20036;-63
2023/03/24 02:04:03;;;;;;;4.85;2.00;;;14.80;78.00;;;;;;5078879;28;20073;-65
2023/03/24 02:06:40;;;;;;;3.83;1.88;;;14.80;77.80;;;;;;5078927;28;20313;-65
2023/03/24 02:09:07;;;;;;;5.30;2.13;;;14.70;77.90;;;;;;5084235;28;20127;-65
2023/03/24 02:11:34;;;;;;;5.85;1.67;;;14.80;77.70;;;;;;5077073;28;20302;-65
2023/03/24 02:14:01;;;;;;;4.72;2.00;;;14.80;77.50;;;;;;5081135;28;20110;-63
2023/03/24 02:16:55;;;;;;;4.60;2.00;;;14.70;77.70;;;;;;5082194;28;20385;-65
2023/03/24 02:19:39;;;;;;;4.13;2.03;;;14.60;78.10;;;;;;5087545;28;20282;-65
2023/03/24 02:22:30;;;;;;;6.43;2.03;;;14.60;77.90;;;;;;5080682;28;20024;-65
2023/03/24 02:25:21;;;;;;;4.28;1.90;;;14.70;77.80;;;;;;5090200;28;20041;-65
2023/03/24 02:28:02;;;;;;;3.90;1.85;;;14.60;77.90;;;;;;5084625;28;20029;-65
2023/03/24 02:30:39;;;;;;;4.80;2.00;;;14.50;78.30;;;;;;5089537;28;20107;-65
2023/03/24 02:33:23;;;;;;;6.10;2.08;;;14.40;78.50;;;;;;5081953;28;20052;-65
2023/03/24 02:36:04;;;;;;;6.53;1.92;;;14.30;79.20;;;;;;5080225;28;20040;-64
2023/03/24 02:38:45;;;;;;;4.88;1.95;;;14.40;78.90;;;;;;5070883;28;20028;-65
2023/03/24 02:41:27;;;;;;;6.50;2.15;;;14.40;79.00;;;;;;5080846;28;20086;-65
2023/03/24 02:44:18;;;;;;;5.82;2.13;;;14.20;79.40;;;;;;5080085;28;20023;-65
2023/03/24 02:47:09;;;;;;;5.13;2.08;;;14.20;79.50;;;;;;5082441;28;20023;-64
2023/03/24 02:49:47;;;;;;;5.90;2.42;;;14.10;80.10;;;;;;5078872;28;20028;-65
2023/03/24 02:52:36;;;;;;;4.75;2.13;;;13.90;80.80;;;;;;5077962;28;20059;-64
2023/03/24 02:55:36;;;;;;;4.15;2.00;;;13.80;80.90;;;;;;5077384;28;20021;-64
2023/03/24 02:58:10;;;;;;;4.78;2.00;;;13.90;81.00;;;;;;5077675;28;20123;-65
2023/03/24 03:00:40;;;;;;;;;;;14.00;80.00;;;;;;5078817;28;20043;-64
2023/03/24 03:03:20;;;;;;;4.40;1.88;;;14.10;80.20;;;;;;5076025;28;19908;-65
2023/03/24 03:06:05;;;;;;;4.13;1.98;;;14.20;79.70;;;;;;5077003;28;20017;-65
2023/03/24 03:08:33;;;;;;;4.05;1.90;;;14.30;79.50;;;;;;5082355;28;20067;-64
2023/03/24 03:11:02;;;;;;;5.38;2.17;;;14.30;79.50;;;;;;5087735;28;20044;-65
2023/03/24 03:13:38;;;;;;;4.50;2.40;;;14.30;79.40;;;;;;5079661;28;20052;-64
2023/03/24 03:16:09;;;;;;;5.00;1.90;;;14.10;79.90;;;;;;5089729;28;20062;-64
2023/03/24 03:18:45;;;;;;;5.47;2.35;;;14.10;80.10;;;;;;5086586;28;20116;-64
2023/03/24 03:21:17;;;;;;;6.32;2.30;;;14.10;80.30;;;;;;5081690;28;20117;-65
2023/03/24 03:23:52;;;;;;;5.82;2.40;;;14.10;80.30;;;;;;5083610;28;20312;-65
2023/03/24 03:26:22;;;;;;;5.00;2.33;;;14.00;80.50;;;;;;5082401;28;20077;-65
2023/03/24 03:28:56;;;;;;;9.73;2.35;;;14.10;80.10;;;;;;5087867;28;20119;-65
2023/03/24 03:31:28;;;;;;;4.55;2.00;;;14.20;80.20;;;;;;5085836;28;20034;-64
2023/03/24 03:34:21;;;;;;;5.30;2.20;;;14.20;79.80;;;;;;5081730;28;20063;-65
2023/03/24 03:36:59;;;;;;;4.53;2.08;;;14.30;79.40;;;;;;5086762;28;20039;-65
2023/03/24 03:39:30;;;;;;;4.53;2.10;;;14.40;79.10;;;;;;5077974;28;20036;-65
2023/03/24 03:41:56;;;;;;;6.30;2.63;;;14.40;79.20;;;;;;5083829;28;20028;-64
2023/03/24 03:44:22;;;;;;;4.43;2.30;;;14.40;79.30;;;;;;5077370;28;20036;-65
2023/03/24 03:46:47;;;;;;;5.47;2.05;;;14.40;79.50;;;;;;5087769;28;20050;-65
2023/03/24 03:49:15;;;;;;;4.82;2.20;;;14.50;79.10;;;;;;5090680;28;20024;-65
2023/03/24 03:51:41;;;;;;;3.72;1.90;;;14.50;79.10;;;;;;5079563;28;20336;-65
2023/03/24 03:54:11;;;;;;;13.48;3.13;;;14.50;79.10;;;;;;5074598;28;20033;-63
2023/03/24 03:56:37;;;;;;;4.05;1.98;;;14.50;79.20;;;;;;5092758;28;20115;-65
2023/03/24 03:59:05;;;;;;;5.13;1.90;;;14.60;79.40;;;;;;5076280;28;20115;-65
2023/03/24 04:01:35;;;;;;;3.90;1.85;;;14.60;79.30;;;;;;5075590;28;20024;-64
2023/03/24 04:04:28;;;;;;;5.47;1.70;;;14.70;79.00;;;;;;5083779;28;20020;-64
2023/03/24 04:07:10;;;;;;;2.90;1.50;;;14.80;78.90;;;;;;5073844;28;20056;-64
2023/03/24 04:09:47;;;;;;;3.00;1.38;;;15.00;78.30;;;;;;5072217;28;20032;-65
2023/03/24 04:12:30;;;;;;;6.22;1.80;;;15.10;78.40;;;;;;5070784;28;20020;-64
2023/03/24 04:15:20;;;;;;;3.30;1.50;;;15.10;78.30;;;;;;5075965;28;20024;-65
2023/03/24 04:18:04;;;;;;;3.35;1.63;;;15.20;78.30;;;;;;5072498;28;20055;-65
2023/03/24 04:20:45;;;;;;;3.60;1.47;;;15.10;78.40;;;;;;5076750;28;20410;-65
2023/03/24 04:23:38;;;;;;;3.63;1.40;;;15.10;78.60;;;;;;5081875;28;20028;-65
2023/03/24 04:26:28;;;;;;;2.83;1.40;;;15.20;78.30;;;;;;5084741;28;20020;-65
2023/03/24 04:29:01;;;;;;;4.30;1.42;;;15.20;78.60;;;;;;5082484;28;20413;-65
2023/03/24 04:31:36;;;;;;;2.55;1.20;;;15.20;78.50;;;;;;5077760;28;20329;-65
2023/03/24 04:34:12;;;;;;;;;;;15.20;78.50;;;;;;5076595;28;20025;-65
2023/03/24 04:36:53;;;;;;;4.10;1.30;;;15.10;79.00;;;;;;5074254;28;20234;-65
2023/03/24 04:39:27;;;;;;;5.63;1.20;;;15.20;78.70;;;;;;5082571;28;20031;-65
2023/03/24 04:41:55;;;;;;;2.90;1.45;;;15.20;78.90;;;;;;5075623;28;20025;-64
2023/03/24 04:44:21;;;;;;;2.42;1.27;;;15.20;78.90;;;;;;5081277;28;20380;-64
2023/03/24 04:46:50;;;;;;;3.05;1.33;;;15.20;79.00;;;;;;5085154;28;20024;-63
2023/03/24 04:49:18;;;;;;;2.72;1.63;;;15.30;78.50;;;;;;5085952;28;20028;-63
2023/03/24 04:51:44;;;;;;;3.80;1.40;;;15.30;78.60;;;;;;5082832;28;20028;-63
2023/03/24 04:54:13;;;;;;;3.67;1.50;;;15.30;78.40;;;;;;5075894;28;20020;-64
2023/03/24 04:57:00;;;;;;;8.90;1.90;;;15.40;78.00;;;;;;5095995;28;20069;-63
2023/03/24 04:59:32;;;;;;;3.50;1.40;;;15.40;77.90;;;;;;5100738;28;20053;-64
2023/03/24 05:01:59;;;;;;;5.53;2.00;;;15.40;78.10;;;;;;5087376;28;20037;-64
2023/03/24 05:04:27;;;;;;;3.35;1.40;;;15.40;78.30;;;;;;5087074;28;20116;-63
2023/03/24 05:06:53;;;;;;;3.33;1.52;;;15.40;78.10;;;;;;5084960;28;20024;-64
2023/03/24 05:09:21;;;;;;;3.78;1.55;;;15.40;78.30;;;;;;5093212;28;20446;-64
2023/03/24 05:11:47;;;;;;;4.28;1.40;;;15.40;78.30;;;;;;5098869;28;20108;-65
2023/03/24 05:14:13;;;;;;;3.55;1.65;;;15.30;78.70;;;;;;5084073;28;20068;-63
2023/03/24 05:16:39;;;;;;;4.40;1.40;;;15.30;78.70;;;;;;5093733;28;20035;-65
2023/03/24 05:19:05;;;;;;;3.65;1.60;;;15.30;78.70;;;;;;5080408;28;20033;-64
2023/03/24 05:21:31;;;;;;;3.60;1.50;;;15.30;79.60;;;;;;5094644;28;20036;-64
2023/03/24 05:23:56;;;;;;;5.90;1.90;;;15.10;81.40;;;;;;5107898;28;20015;-64
2023/03/24 05:26:22;;;;;;;3.70;1.80;;;14.70;82.90;;;;;;5087677;28;20024;-64
2023/03/24 05:28:48;;;;;;;3.38;1.65;;;14.50;83.90;;;;;;5082338;28;20057;-63
2023/03/24 05:31:14;;;;;;;3.80;1.80;;;14.30;85.00;;;;;;5084608;28;20037;-63
2023/03/24 05:33:39;;;;;;;6.07;1.80;;;14.00;86.60;;;;;;5084697;28;20028;-63
2023/03/24 05:36:05;;;;;;;5.50;2.25;;;13.80;87.80;;;;;;5076153;28;20050;-63
2023/03/24 05:38:31;;;;;;;8.48;2.25;;;13.50;89.70;;;;;;5094871;28;20297;-64
2023/03/24 05:40:58;;;;;;;7.32;2.42;;;13.20;91.30;;;;;;5084224;28;20027;-64
2023/03/24 05:43:24;;;;;;;4.65;2.25;;;12.80;93.00;;;;;;5078571;28;20025;-64
2023/03/24 05:45:49;;;;;;;6.55;2.88;;;12.60;94.20;;;;;;5088175;28;20344;-64
2023/03/24 05:48:15;;;;;;;6.70;3.58;;;12.30;95.20;;;;;;5081305;28;20036;-66
2023/03/24 05:50:40;;;;;;;5.07;2.60;;;12.00;95.40;;;;;;5087740;28;20020;-67
2023/03/24 05:53:06;;;;;;;4.75;2.30;;;11.90;95.20;;;;;;5093289;28;20032;-67
2023/03/24 05:55:32;;;;;;;4.93;2.60;;;11.60;95.60;;;;;;5084495;28;20028;-67
2023/03/24 05:58:00;;;;;;;5.45;2.47;;;11.50;96.40;;;;;;5083597;28;20036;-66
2023/03/24 06:00:27;;;;;;;4.65;2.70;;;11.40;95.70;;;;;;5092193;28;20027;-66
2023/03/24 06:02:53;;;;;;;5.25;2.80;;;11.40;95.20;;;;;;5085613;28;20024;-66
2023/03/24 06:05:19;;;;;;;5.43;3.15;;;11.30;95.30;;;;;;5076866;28;20672;-65
2023/03/24 06:07:44;;;;;;;4.20;2.40;;;11.30;94.40;;;;;;5075670;28;20440;-66
2023/03/24 06:10:13;;;;;;;5.07;2.78;;;11.40;95.50;;;;;;5077561;28;20029;-67
2023/03/24 06:12:39;;;;;;;6.00;3.40;;;11.40;95.50;;;;;;5081573;28;20052;-66
2023/03/24 06:15:06;;;;;;;4.95;2.95;;;11.30;94.70;;;;;;5085945;28;20020;-66
2023/03/24 06:17:32;;;;;;;5.47;2.85;;;11.30;94.40;;;;;;5086918;28;20359;-66
2023/03/24 06:20:04;;;;;;;4.70;2.80;;;11.50;95.90;;;;;;5092208;28;20019;-66
2023/03/24 06:22:33;;;;;;;8.85;3.25;;;11.50;96.20;;;;;;5085196;28;20516;-67
2023/03/24 06:24:59;;;;;;;5.07;3.08;;;11.40;96.10;;;;;;5088519;28;20032;-66
2023/03/24 06:27:29;;;;;;;6.00;3.65;;;11.50;96.30;;;;;;5080284;28;20025;-67
2023/03/24 06:29:57;;;;;;;5.38;3.30;;;11.50;96.30;;;;;;5086791;28;20024;-67
2023/03/24 06:32:23;;;;;;;5.85;3.28;;;11.60;96.40;;;;;;5085756;28;20077;-66
2023/03/24 06:34:49;;;;;;;5.50;3.38;;;11.60;95.80;;;;;;5098788;28;20016;-67
2023/03/24 06:37:15;;;;;;;6.93;3.60;;;11.50;95.90;;;;;;5087153;28;20409;-66
2023/03/24 06:39:41;;;;;;;5.25;2.97;;;11.50;95.30;;;;;;5090854;28;20085;-67
2023/03/24 06:42:06;;;;;;;5.18;3.15;;;11.50;95.60;;;;;;5078151;28;20028;-66
2023/03/24 06:44:32;;;;;;;5.15;3.00;;;11.60;96.00;;;;;;5078534;28;20032;-66
2023/03/24 06:46:58;;;;;;;5.22;3.00;;;11.60;96.20;;;;;;5083868;28;20401;-66
2023/03/24 06:49:23;;;;;;;5.05;2.97;;;11.70;96.50;;;;;;5091149;28;20457;-67
2023/03/24 06:51:49;;;;;;;6.20;3.20;;;11.80;96.40;;;;;;5092876;28;20111;-67
2023/03/24 06:54:15;;;;;;;5.20;3.00;;;11.90;96.40;;;;;;5077371;28;20429;-66
2023/03/24 06:56:41;;;;;;;5.55;3.10;;;11.90;96.40;;;;;;5094258;28;20117;-67
2023/03/24 06:59:07;;;;;;;8.82;3.95;;;12.00;96.20;;;;;;5086234;28;20107;-67
2023/03/24 07:01:37;;;;;;;5.65;3.05;;;12.00;96.50;;;;;;5089318;28;20325;-66
2023/03/24 07:04:03;;;;;;;5.65;3.40;;;12.00;96.60;;;;;;5092627;28;20316;-67
2023/03/24 07:06:29;;;;;;;5.88;2.88;;;11.90;96.10;;;;;;5093146;28;20024;-66
2023/03/24 07:08:55;;;;;;;6.50;3.72;;;11.90;96.10;;;;;;5083678;28;20293;-67
2023/03/24 07:11:21;;;;;;;96.00;13.25;;;11.80;94.80;;;;;;5087874;28;20463;-67
2023/03/24 07:13:46;;;;;;;18.23;4.88;;;11.70;94.90;;;;;;5096967;28;20028;-68
2023/03/24 07:16:12;;;;;;;6.95;3.85;;;11.50;94.40;;;;;;5098105;28;20428;-67
2023/03/24 07:18:37;;;;;;;7.60;4.13;;;11.40;92.80;;;;;;5097912;28;20408;-68
2023/03/24 07:21:04;;;;;;;7.07;4.15;;;11.20;92.50;;;;;;5096818;28;20026;-68
2023/03/24 07:23:31;;;;;;;11.98;5.15;;;11.10;91.20;;;;;;5096712;28;20308;-68
2023/03/24 07:25:56;;;;;;;31.13;7.55;;;11.10;91.90;;;;;;5097975;28;20022;-67
2023/03/24 07:28:22;;;;;;;7.15;4.43;;;11.10;90.90;;;;;;5096642;28;20379;-68
2023/03/24 07:30:48;;;;;;;7.53;4.40;;;11.10;89.50;;;;;;5097583;28;20081;-67
2023/03/24 07:33:13;;;;;;;7.88;4.05;;;11.10;89.30;;;;;;5097730;28;20056;-68
2023/03/24 07:35:39;;;;;;;8.32;4.90;;;11.00;88.50;;;;;;5092399;28;20032;-67
2023/03/24 07:38:05;;;;;;;7.72;4.47;;;11.00;87.50;;;;;;5077275;28;20409;-67
2023/03/24 07:40:34;;;;;;;11.68;5.45;;;11.00;85.40;;;;;;5077492;28;20081;-67
2023/03/24 07:43:01;;;;;;;5.47;3.35;;;11.10;85.70;;;;;;5075991;28;20013;-68
2023/03/24 07:45:27;;;;;;;7.38;3.60;;;11.10;89.20;;;;;;5077217;28;20317;-67
2023/03/24 07:47:53;;;;;;;7.78;4.47;;;11.10;88.50;;;;;;5077247;28;20472;-67
2023/03/24 07:50:22;;;;;;;6.18;3.90;;;11.10;86.70;;;;;;5079618;28;20104;-67
2023/03/24 07:52:48;;;;;;;16.80;5.90;;;11.00;86.80;;;;;;5097317;28;20028;-68
2023/03/24 07:55:14;;;;;;;31.48;6.70;;;11.10;88.60;;;;;;5097207;28;20035;-68
2023/03/24 07:57:42;;;;;;;18.65;4.95;;;11.10;86.90;;;;;;5095900;28;20083;-68
2023/03/24 08:00:14;;;;;;;6.45;3.42;;;11.10;86.60;;;;;;5097069;28;20024;-68
2023/03/24 08:02:40;;;;;;;7.65;3.72;;;11.20;88.80;;;;;;5082352;28;20437;-68
2023/03/24 08:05:07;;;;;;;5.38;3.35;;;11.10;89.70;;;;;;5076504;28;20070;-68
2023/03/24 08:07:33;;;;;;;5.35;3.40;;;11.10;89.10;;;;;;5076695;28;20024;-68
2023/03/24 08:09:59;;;;;;;5.25;3.22;;;11.10;88.20;;;;;;5077066;28;20021;-68
2023/03/24 08:12:25;;;;;;;7.32;4.30;;;11.00;87.60;;;;;;5075409;28;20342;-68
2023/03/24 08:14:51;;;;;;;6.18;3.08;;;11.00;85.60;;;;;;5076485;28;20039;-68
2023/03/24 08:17:16;;;;;;;8.88;4.32;;;11.00;85.90;;;;;;5076673;28;20020;-69
2023/03/24 08:19:42;;;;;;;13.45;6.60;;;11.00;83.70;;;;;;5076353;28;20032;-69
2023/03/24 08:22:07;;;;;;;10.50;7.22;;;10.90;82.40;;;;;;5076540;28;20089;-69
2023/03/24 08:24:35;;;;;;;10.60;5.72;;;10.90;79.70;;;;;;5080075;28;20032;-69
2023/03/24 08:27:04;;;;;;;9.88;6.22;;;10.90;77.50;;;;;;5094099;28;20328;-69
2023/03/24 08:29:33;;;;;;;13.93;7.50;;;10.90;76.00;;;;;;5076434;28;20413;-69
2023/03/24 08:31:59;;;;;;;16.55;9.30;;;11.00;74.30;;;;;;5084804;28;20055;-69
2023/03/24 08:34:25;;;;;;;8.60;5.18;;;11.00;74.80;;;;;;5096301;28;20115;-68
2023/03/24 08:36:51;;;;;;;10.82;5.70;;;11.00;75.10;;;;;;5096589;28;20046;-69
2023/03/24 08:39:17;;;;;;;10.50;6.22;;;11.00;75.10;;;;;;5094987;28;20024;-69
2023/03/24 08:41:42;;;;;;;13.82;6.25;;;11.00;75.10;;;;;;5087790;28;20024;-68
2023/03/24 08:44:10;;;;;;;7.18;2.95;;;11.00;80.10;;;;;;5094701;28;20096;-69
2023/03/24 08:46:36;;;;;;;7.15;3.20;;;11.00;85.20;;;;;;5096449;28;20039;-69
2023/03/24 08:49:02;;;;;;;4.70;2.70;;;11.00;84.20;;;;;;5096468;28;20059;-68
2023/03/24 08:51:27;;;;;;;4.57;2.53;;;11.10;86.60;;;;;;5089956;28;20021;-68
2023/03/24 08:53:54;;;;;;;5.28;2.78;;;11.10;87.90;;;;;;5076158;28;20302;-69
2023/03/24 08:56:20;;;;;;;4.07;2.10;;;11.10;88.80;;;;;;5078038;28;20421;-68
2023/03/24 08:58:49;;;;;;;4.70;2.38;;;11.10;91.80;;;;;;5094995;28;20032;-68
2023/03/24 09:01:16;;;;;;;3.35;1.88;;;11.10;90.40;;;;;;5089659;28;20108;-68
2023/03/24 09:03:43;;;;;;;4.50;2.08;;;11.10;95.40;;;;;;5075957;28;20048;-68
2023/03/24 09:06:09;;;;;;;3.75;2.00;;;11.10;92.30;;;;;;5076169;28;20020;-67
2023/03/24 09:08:35;;;;;;;3.58;2.00;;;11.10;92.50;;;;;;5075969;28;20030;-67
2023/03/24 09:11:00;;;;;;;3.45;1.70;;;11.10;96.00;;;;;;5079965;28;20438;-67
2023/03/24 09:13:26;;;;;;;3.40;1.75;;;11.10;93.60;;;;;;5094951;28;20060;-67
2023/03/24 09:15:56;;;;;;;3.05;1.52;;;11.20;95.10;;;;;;5092142;28;20047;-67
2023/03/24 09:18:22;;;;;;;2.65;1.40;;;11.40;96.60;;;;;;5079673;28;20021;-67
2023/03/24 09:20:48;;;;;;;3.20;1.40;;;11.60;98.00;;;;;;5075845;28;20035;-67
2023/03/24 09:23:14;;;;;;;2.60;1.20;;;11.70;97.60;;;;;;5077378;28;20081;-67
2023/03/24 09:25:40;;;;;;;2.15;1.05;;;11.90;97.10;;;;;;5096044;28;20103;-67
2023/03/24 09:28:07;;;;;;;2.65;1.20;;;12.20;97.20;;;;;;5094659;28;20099;-67
2023/03/24 09:30:33;;;;;;;1.45;0.93;;;12.40;96.70;;;;;;5090973;28;20020;-66
2023/03/24 09:32:59;;;;;;;2.10;1.05;;;12.70;96.80;;;;;;5075719;28;20074;-66
2023/03/24 09:35:27;;;;;;;2.40;0.95;;;12.80;95.50;;;;;;5074608;28;20028;-66
2023/03/24 09:37:54;;;;;;;1.92;1.00;;;13.00;95.50;;;;;;5075660;28;20027;-66
2023/03/24 09:40:24;;;;;;;1.73;0.98;;;13.20;94.50;;;;;;5075405;28;20550;-66
2023/03/24 09:43:05;;;;;;;2.05;1.00;;;13.30;94.40;;;;;;5074448;28;20332;-66
2023/03/24 09:45:36;;;;;;;5.82;2.85;;;13.40;94.30;;;;;;5078924;28;20032;-66
2023/03/24 09:48:19;;;;;;;2.78;1.30;;;13.50;93.70;;;;;;5086091;28;20328;-66
2023/03/24 09:50:53;;;;;;;3.60;1.70;;;13.70;92.80;;;;;;5076338;28;20028;-66
2023/03/24 09:53:38;;;;;;;4.40;1.77;;;13.80;92.50;;;;;;5083788;28;20379;-66
2023/03/24 09:56:09;;;;;;;;;;;13.90;92.30;;;;;;5075898;28;20020;-66
2023/03/24 09:58:35;;;;;;;3.15;1.20;;;14.00;91.30;;;;;;5077880;28;19970;-66
2023/03/24 10:01:01;;;;;;;2.13;1.00;;;14.00;91.30;;;;;;5079275;28;20032;-66
2023/03/24 10:03:26;;;;;;;2.58;1.17;;;14.20;91.50;;;;;;5093918;28;20032;-66
2023/03/24 10:06:08;;;;;;;1.70;0.90;;;14.50;90.10;;;;;;5099433;28;20313;-66
2023/03/24 10:08:49;;;;;;;2.75;1.13;;;14.60;89.20;;;;;;5099519;28;20031;-66
2023/03/24 10:11:28;;;;;;;2.97;1.10;;;14.40;90.10;;;;;;5099245;28;20024;-66
2023/03/24 10:14:05;;;;;;;2.33;1.10;;;14.30;90.90;;;;;;5098060;28;20035;-66
2023/03/24 10:16:49;;;;;;;3.08;1.40;;;14.30;90.30;;;;;;5097307;28;20108;-66
2023/03/24 10:19:37;;;;;;;1.88;0.93;;;14.80;90.50;;;;;;5099260;28;20050;-67
2023/03/24 10:22:29;;;;;;;2.58;1.20;;;14.80;89.40;;;;;;5082730;28;20032;-66
2023/03/24 10:25:03;;;;;;;2.95;1.40;;;14.90;90.20;;;;;;5084331;28;20020;-66
2023/03/24 10:27:38;;;;;;;1.95;1.20;;;14.90;89.50;;;;;;5097741;28;20022;-66
2023/03/24 10:30:18;;;;;;;2.25;1.10;;;14.80;89.60;;;;;;5098922;28;20028;-66
2023/03/24 10:32:44;;;;;;;3.58;1.90;;;14.60;90.10;;;;;;5099044;28;20020;-66
2023/03/24 10:35:29;;;;;;;3.65;1.60;;;14.50;90.20;;;;;;5098762;28;20118;-65
2023/03/24 10:37:59;;;;;;;3.20;1.50;;;14.50;90.60;;;;;;5098660;28;20527;-64
2023/03/24 10:40:30;;;;;;;3.03;1.27;;;14.60;90.80;;;;;;5095677;28;20028;-64
2023/03/24 10:42:57;;;;;;;5.30;1.30;;;14.50;90.00;;;;;;5076557;28;20017;-64
2023/03/24 10:45:32;;;;;;;2.00;1.13;;;14.40;90.70;;;;;;5078478;28;20028;-65
2023/03/24 10:48:00;;;;;;;3.35;1.27;;;14.30;91.40;;;;;;5078386;28;20048;-66
2023/03/24 10:50:28;;;;;;;2.80;1.30;;;14.40;90.30;;;;;;5084106;28;20038;-66
2023/03/24 10:52:54;;;;;;;2.30;1.10;;;14.30;90.50;;;;;;5098576;28;20020;-66
2023/03/24 10:55:30;;;;;;;3.05;1.40;;;14.40;90.60;;;;;;5096533;28;20439;-65
2023/03/24 10:57:58;;;;;;;2.75;1.33;;;14.30;91.50;;;;;;5076753;28;20380;-65
2023/03/24 11:00:31;;;;;;;3.15;1.30;;;14.20;90.90;;;;;;5078161;28;20075;-65
2023/03/24 11:03:03;;;;;;;3.72;1.20;;;14.20;91.20;;;;;;5078223;28;20021;-66
2023/03/24 11:05:37;;;;;;;3.90;1.50;;;14.10;92.10;;;;;;5082306;28;20031;-65
2023/03/24 11:08:35;;;;;;;5.43;1.42;;;14.10;92.10;;;;;;5096747;28;20316;-66
2023/03/24 11:11:28;;;;;;;3.10;1.35;;;14.20;91.80;;;;;;5098245;28;20670;-65
2023/03/24 11:13:56;;;;;;;3.80;1.40;;;14.10;92.00;;;;;;5076059;28;20024;-65
2023/03/24 11:16:34;;;;;;;3.85;1.90;;;14.20;91.80;;;;;;5077715;28;20025;-65
2023/03/24 11:19:02;;;;;;;2.38;1.30;;;14.20;92.00;;;;;;5093020;28;20028;-65
2023/03/24 11:21:30;;;;;;;3.63;1.30;;;14.20;91.80;;;;;;5098059;28;20321;-66
2023/03/24 11:24:01;;;;;;;2.60;1.20;;;14.00;91.20;;;;;;5097894;28;20073;-66
2023/03/24 11:26:34;;;;;;;2.13;1.20;;;14.20;91.20;;;;;;5082614;28;20029;-65
2023/03/24 11:29:13;;;;;;;3.15;1.15;;;14.70;90.00;;;;;;5092965;28;20028;-66
2023/03/24 11:31:40;;;;;;;2.88;1.20;;;15.20;89.20;;;;;;5097805;28;20020;-66
2023/03/24 11:34:27;;;;;;;2.08;1.00;;;15.00;87.60;;;;;;5097775;28;20046;-65
2023/03/24 11:36:58;;;;;;;3.05;1.00;;;14.80;88.10;;;;;;5097773;28;20024;-65
2023/03/24 11:39:30;;;;;;;2.35;1.00;;;14.80;88.90;;;;;;5082434;28;20029;-66
2023/03/24 11:42:10;;;;;;;4.38;1.00;;;14.80;89.20;;;;;;5076345;28;20419;-65
2023/03/24 11:44:48;;;;;;;2.55;1.20;;;14.70;88.70;;;;;;5077215;28;20028;-66
2023/03/24 11:47:36;;;;;;;2.30;0.98;;;14.60;88.70;;;;;;5077407;28;20017;-65
2023/03/24 11:50:10;;;;;;;3.65;1.00;;;14.80;88.30;;;;;;5082080;28;20032;-65
2023/03/24 11:52:51;;;;;;;2.28;0.90;;;14.70;87.30;;;;;;5091650;28;20162;-65
2023/03/24 11:55:22;;;;;;;1.83;1.00;;;14.30;88.80;;;;;;5077058;28;20025;-65
2023/03/24 11:58:02;;;;;;;3.90;1.00;;;14.00;89.30;;;;;;5075569;28;20048;-65
2023/03/24 12:00:40;;;;;;;2.63;1.27;;;13.90;90.00;;;;;;5077349;28;20079;-65
2023/03/24 12:03:09;;;;;;;2.03;1.10;;;14.00;89.90;;;;;;5076973;28;20027;-65
2023/03/24 12:06:19;;;;;;;3.00;1.20;;;13.90;89.70;;;;;;5076852;28;20021;-66
2023/03/24 12:09:03;;;;;;;2.15;1.10;;;13.90;89.90;;;;;;5061351;28;20433;-65
2023/03/24 12:11:45;;;;;;;2.20;1.20;;;13.70;90.30;;;;;;5095942;28;20078;-65
2023/03/24 12:14:16;;;;;;;2.70;1.25;;;13.80;90.60;;;;;;5084269;28;20033;-65
2023/03/24 12:17:11;;;;;;;6.13;0.98;;;14.00;90.40;;;;;;5076666;28;20115;-65
2023/03/24 12:19:44;;;;;;;;;;;14.10;90.10;;;;;;5076296;28;20087;-66
2023/03/24 12:22:27;;;;;;;4.20;1.30;;;14.20;89.20;;;;;;5076581;28;19971;-65
2023/03/24 12:25:20;;;;;;;2.08;1.02;;;14.10;89.40;;;;;;5085975;28;20470;-65
2023/03/24 12:28:10;;;;;;;2.00;1.00;;;13.90;90.00;;;;;;5095407;28;20044;-65
2023/03/24 12:31:07;;;;;;;2.40;0.95;;;13.80;90.10;;;;;;5082342;28;20414;-65
2023/03/24 12:33:45;;;;;;;3.78;1.58;;;13.80;90.80;;;;;;5080764;28;20020;-64
2023/03/24 12:36:30;;;;;;;2.35;0.90;;;13.80;90.00;;;;;;5096657;28;20024;-65
2023/03/24 12:39:08;;;;;;;3.47;1.67;;;13.90;90.40;;;;;;5090695;28;20027;-65
2023/03/24 12:41:58;;;;;;;2.63;1.20;;;14.00;89.50;;;;;;5096447;28;20012;-65
2023/03/24 12:44:38;;;;;;;2.17;0.98;;;14.00;89.40;;;;;;5076318;28;20460;-65
2023/03/24 12:47:49;;;;;;;1.88;0.80;;;14.10;88.80;;;;;;5082092;28;20028;-65
2023/03/24 12:50:23;;;;;;;1.75;0.88;;;14.00;88.50;;;;;;5082319;28;20032;-65
2023/03/24 12:53:31;;;;;;;2.65;0.98;;;14.20;89.00;;;;;;5076292;28;20313;-66
2023/03/24 12:56:08;;;;;;;2.20;0.88;;;14.90;86.80;;;;;;5080126;28;20104;-65
2023/03/24 12:58:40;;;;;;;3.55;0.80;;;15.00;86.90;;;;;;5094764;28;20105;-65
2023/03/24 13:01:30;;;;;;;1.38;0.52;;;14.80;85.60;;;;;;5086085;28;20024;-64
2023/03/24 13:04:10;;;;;;;1.80;0.80;;;14.50;86.00;;;;;;5095680;28;20043;-65
2023/03/24 13:06:44;;;;;;;1.60;0.70;;;14.80;86.10;;;;;;5082693;28;20078;-65
2023/03/24 13:09:10;;;;;;;3.53;1.50;;;14.60;85.10;;;;;;5075994;28;20051;-65
2023/03/24 13:12:37;;;;;;;0.98;0.60;;;14.40;85.50;;;;;;5075884;28;20068;-66